Time;durP1;ratioP1;P1;durP2;ratioP2;P2;SDS_P1;SDS_P2;PMS_P1;PMS_P2;Temp;Humidity;BMP_temperature;BMP_pressure;BME280_temperature;BME280_humidity;BME280_pressure;Samples;Min_cycle;Max_cycle;Signal;HPM_P1;HPM_P2
2022/05/02 06:26:14;;;;;;;;;24.50;23.00;;;;;13.08;100.00;101256.47;6142265;22;46345;-85
2022/05/02 06:28:41;;;;;;;;;29.50;26.00;;;;;13.16;100.00;101268.25;6125207;22;45372;-86
2022/05/02 06:31:13;;;;;;;;;34.00;29.00;;;;;13.21;100.00;101268.47;6146523;23;45293;-85
2022/05/02 06:33:41;;;;;;;;;36.50;32.25;;;;;13.24;100.00;101265.97;6145868;23;45529;-86
2022/05/02 06:36:45;;;;;;;;;34.00;28.00;;;;;13.33;100.00;101269.81;6171007;23;47786;-85
2022/05/02 06:39:47;;;;;;;;;35.25;30.25;;;;;13.44;100.00;101267.63;6173896;23;45309;-85
2022/05/02 06:42:22;;;;;;;;;19.00;15.50;;;;;13.54;100.00;101268.91;6178396;22;45286;-86
2022/05/02 06:45:06;;;;;;;;;32.25;30.75;;;;;13.63;100.00;101275.50;6147228;23;45528;-86
2022/05/02 06:48:01;;;;;;;;;27.00;26.50;;;;;13.73;100.00;101276.78;6143023;22;45357;-86
2022/05/02 06:50:31;;;;;;;;;28.25;24.75;;;;;13.82;100.00;101277.97;6136576;22;45302;-86
2022/05/02 06:53:05;;;;;;;;;30.75;25.00;;;;;13.92;100.00;101290.72;6141996;23;45398;-86
2022/05/02 06:56:04;;;;;;;;;36.00;31.50;;;;;14.03;100.00;101288.50;6165649;22;45447;-86
2022/05/02 06:58:53;;;;;;;;;26.00;23.25;;;;;14.15;100.00;101290.72;6163009;23;47446;-86
2022/05/02 07:01:49;;;;;;;;;28.00;26.00;;;;;14.26;98.88;101309.63;6142241;23;45614;-86
2022/05/02 07:04:27;;;;;;;;;26.25;21.75;;;;;14.35;98.60;101310.84;6144244;23;45771;-86
2022/05/02 07:07:01;;;;;;;;;29.25;27.00;;;;;14.45;98.98;101312.09;6165365;22;45495;-86
2022/05/02 07:09:53;;;;;;;;;28.75;26.75;;;;;14.52;98.37;101317.66;6164492;22;47066;-86
2022/05/02 07:12:22;;;;;;;;;26.75;23.25;;;;;14.63;98.10;101319.81;6155721;22;45476;-87
2022/05/02 07:15:03;;;;;;;;;30.75;26.25;;;;;14.71;96.63;101333.31;6143853;23;45586;-86
2022/05/02 07:17:44;;;;;;;;;26.50;20.75;;;;;14.81;96.82;101326.63;6172156;23;45336;-86
2022/05/02 07:20:13;;;;;;;;;32.50;26.00;;;;;14.85;97.18;101316.22;6142890;23;45324;-86
2022/05/02 07:22:43;;;;;;;;;25.75;24.75;;;;;14.91;96.53;101327.91;6142611;22;45421;-86
2022/05/02 07:25:11;;;;;;;;;30.00;25.75;;;;;14.99;96.58;101322.91;6137464;22;45421;-87
2022/05/02 07:27:42;;;;;;;;;34.25;27.50;;;;;15.11;96.94;101314.50;6166462;23;45290;-85
2022/05/02 07:30:08;;;;;;;;;23.00;21.25;;;;;15.18;96.24;101327.09;6167230;22;46224;-86
2022/05/02 07:32:35;;;;;;;;;30.75;24.00;;;;;15.28;95.90;101331.00;6141991;23;45738;-86
2022/05/02 07:35:02;;;;;;;;;29.25;26.50;;;;;15.44;96.42;101326.22;6137315;23;45466;-86
2022/05/02 07:37:30;;;;;;;;;33.25;29.00;;;;;15.60;96.21;101340.88;6141712;23;45412;-86
2022/05/02 07:39:57;;;;;;;;;35.50;25.75;;;;;15.71;95.50;101343.88;6115842;23;48516;-86
2022/05/02 07:42:25;;;;;;;;;32.75;26.00;;;;;15.89;95.64;101337.41;6137980;23;45388;-86
2022/05/02 07:44:52;;;;;;;;;24.75;22.50;;;;;16.05;95.04;101344.16;6140337;23;45381;-86
2022/05/02 07:47:19;;;;;;;;;27.50;24.50;;;;;16.23;93.69;101359.72;6164519;23;45480;-86
2022/05/02 07:49:50;;;;;;;;;26.75;23.75;;;;;16.42;92.92;101369.13;6116758;22;46010;-86
2022/05/02 07:52:26;;;;;;;;;28.25;25.25;;;;;16.58;91.60;101374.91;6115331;23;45453;-86
2022/05/02 07:54:54;;;;;;;;;24.75;23.25;;;;;16.74;90.33;101383.34;6142554;23;45788;-86
2022/05/02 07:57:21;;;;;;;;;30.50;26.00;;;;;16.93;90.21;101392.72;6139998;23;45289;-86
2022/05/02 07:59:51;;;;;;;;;30.75;26.50;;;;;17.07;89.59;101393.13;6114717;22;48178;-86
2022/05/02 08:02:18;;;;;;;;;27.75;24.00;;;;;17.28;88.97;101412.28;6144149;23;45360;-86
2022/05/02 08:04:47;;;;;;;;;25.50;24.75;;;;;17.42;88.69;101400.31;6165179;23;45436;-86
2022/05/02 08:07:16;;;;;;;;;29.50;25.50;;;;;17.67;88.34;101401.84;6165795;23;45563;-85
2022/05/02 08:10:25;;;;;;;;;29.75;23.25;;;;;17.93;87.94;101407.84;6114286;23;48278;-86
2022/05/02 08:12:57;;;;;;;;;27.00;26.75;;;;;18.23;87.94;101411.22;6142476;23;45332;-86
2022/05/02 08:15:42;;;;;;;;;30.75;28.50;;;;;18.52;87.23;101418.09;6142003;23;45394;-86
2022/05/02 08:18:26;;;;;;;;;31.50;25.25;;;;;18.72;86.35;101430.94;6246458;22;45611;-85
2022/05/02 08:20:51;;;;;;;;;29.25;26.75;;;;;18.84;86.33;101422.31;6141284;22;45428;-85
2022/05/02 08:27:16;;;;;;;;;34.25;28.50;;;;;18.91;83.95;101442.00;6143231;22;45274;-85
2022/05/02 08:29:45;;;;;;;;;35.25;27.25;;;;;18.93;84.26;101435.84;6142916;22;45406;-85
2022/05/02 08:32:34;;;;;;;;;40.50;33.00;;;;;18.95;83.34;101441.19;6140998;23;45459;-86
2022/05/02 08:35:18;;;;;;;;;38.75;31.25;;;;;18.97;83.53;101434.13;6151371;22;45497;-86
2022/05/02 08:38:14;;;;;;;;;36.25;29.50;;;;;18.98;83.25;101431.53;6150130;23;45404;-87
2022/05/02 08:41:07;;;;;;;;;34.25;27.50;;;;;19.02;82.99;101436.91;6149125;22;45321;-86
2022/05/02 08:43:51;;;;;;;;;33.75;28.75;;;;;19.06;82.88;101439.66;6142574;23;46498;-87
2022/05/02 08:46:37;;;;;;;;;37.50;29.00;;;;;19.13;82.40;101440.69;6146945;22;45390;-85
2022/05/02 08:49:35;;;;;;;;;28.50;23.75;;;;;19.18;82.56;101441.72;6143150;23;45444;-86
2022/05/02 08:52:18;;;;;;;;;30.75;28.50;;;;;19.27;82.04;101440.09;6142856;23;45463;-86
2022/05/02 08:54:48;;;;;;;;;31.75;26.00;;;;;19.36;82.19;101444.69;6163717;22;47994;-86
2022/05/02 08:58:01;;;;;;;;;30.50;28.25;;;;;19.48;82.03;101447.59;6142447;23;45294;-86
2022/05/02 09:01:00;;;;;;;;;37.25;31.50;;;;;19.58;81.66;101456.69;6161130;22;45362;-86
2022/05/02 09:04:00;;;;;;;;;40.25;30.25;;;;;19.65;81.57;101453.28;6170050;23;45532;-86
2022/05/02 09:06:44;;;;;;;;;36.50;31.00;;;;;19.67;81.88;101447.97;6143291;22;48183;-86
2022/05/02 09:09:23;;;;;;;;;28.00;24.50;;;;;19.68;81.13;101448.88;6153205;22;45418;-86
2022/05/02 09:12:10;;;;;;;;;27.50;25.00;;;;;19.80;81.52;101451.75;6152533;23;45314;-86
2022/05/02 09:15:03;;;;;;;;;32.50;27.75;;;;;19.99;81.44;101449.41;6165528;22;45463;-86
2022/05/02 09:17:54;;;;;;;;;31.50;27.25;;;;;20.28;81.32;101458.81;6166777;22;47280;-86
2022/05/02 09:20:22;;;;;;;;;27.00;24.00;;;;;20.51;80.56;101450.28;6141037;23;45282;-87
2022/05/02 09:23:13;;;;;;;;;32.00;28.50;;;;;20.66;80.58;101446.94;6171522;22;45295;-86
2022/05/02 09:25:57;;;;;;;;;29.75;26.25;;;;;20.85;80.43;101447.19;6145890;22;45266;-87
2022/05/02 09:28:36;;;;;;;;;35.50;29.50;;;;;20.98;80.00;101441.13;6143609;22;45390;-86
2022/05/02 09:31:30;;;;;;;;;31.75;26.00;;;;;21.08;80.09;101436.84;6140199;23;46242;-87
2022/05/02 09:34:17;;;;;;;;;33.50;31.75;;;;;21.25;79.77;101438.84;6141377;23;45670;-86
2022/05/02 09:36:49;;;;;;;;;33.25;27.25;;;;;21.41;79.32;101439.91;6139843;23;45319;-86
2022/05/02 09:39:31;;;;;;;;;37.25;31.25;;;;;21.68;79.63;101441.94;6242750;22;48089;-86
2022/05/02 09:42:15;;;;;;;;;27.75;26.50;;;;;22.08;78.95;101453.06;6094072;22;45498;-86
2022/05/02 09:52:01;;;;;;;;;36.50;30.00;;;;;23.22;77.20;101444.81;6235338;22;45329;-87
2022/05/02 09:57:35;;;;;;;;;36.25;28.75;;;;;24.18;76.65;101449.44;6235273;22;45592;-87
2022/05/02 10:02:49;;;;;;;;;28.75;27.25;;;;;24.89;74.22;101458.31;6234471;22;45760;-88
2022/05/02 10:05:45;;;;;;;;;32.25;27.75;;;;;25.16;73.73;101458.22;6208865;22;45305;-87
2022/05/02 10:08:20;;;;;;;;;31.00;24.75;;;;;25.38;73.54;101456.31;6060405;23;45378;-89
2022/05/02 10:11:09;;;;;;;;;32.00;28.00;;;;;25.99;73.58;101464.00;6084709;23;45496;-87
2022/05/02 10:13:37;;;;;;;;;25.25;24.25;;;;;26.82;72.64;101470.41;6083430;23;47578;-88
2022/05/02 10:16:25;;;;;;;;;29.50;27.25;;;;;27.81;72.05;101471.81;6068201;23;45778;-88
2022/05/02 10:19:18;;;;;;;;;26.67;25.00;;;;;28.32;70.47;101474.59;6059457;23;45773;-88
2022/05/02 10:22:01;;;;;;;;;28.00;24.75;;;;;28.53;69.55;101476.03;6072122;23;45484;-87
2022/05/02 10:24:47;;;;;;;;;28.75;24.75;;;;;28.74;68.56;101470.22;6087978;23;46943;-95
2022/05/02 10:27:21;;;;;;;;;28.75;27.00;;;;;29.11;67.60;101471.31;6118531;23;45355;-95
2022/05/02 10:30:07;;;;;;;;;27.00;26.25;;;;;29.37;66.88;101467.16;6117804;23;45400;-95
2022/05/02 10:32:46;;;;;;;;;29.25;26.25;;;;;29.54;66.65;101465.84;6093197;23;45507;-96
2022/05/02 10:35:17;;;;;;;;;35.25;30.50;;;;;29.77;65.77;101453.63;6115194;23;46733;-94
2022/05/02 10:37:53;;;;;;;;;29.00;25.25;;;;;30.53;65.65;101456.22;6118556;23;45304;-95
2022/05/02 10:40:29;;;;;;;;;31.25;27.25;;;;;31.65;65.08;101472.81;6094514;23;45469;-93
2022/05/02 10:42:57;;;;;;;;;27.50;24.50;;;;;33.17;64.87;101472.06;6092356;23;45531;-94
2022/05/02 10:45:26;;;;;;;;;23.00;21.50;;;;;34.36;59.29;101469.09;6133653;23;45359;-91
2022/05/02 10:47:54;;;;;;;;;27.75;23.75;;;;;34.57;58.02;101469.09;6149839;23;45388;-92
2022/05/02 10:50:26;;;;;;;;;27.25;24.25;;;;;33.68;56.09;101466.44;6117214;23;45467;-92
2022/05/02 10:53:17;;;;;;;;;29.25;26.25;;;;;32.18;56.41;101467.50;6141992;23;45211;-86
2022/05/02 10:56:20;;;;;;;;;19.67;18.00;;;;;31.07;56.74;101468.28;6142337;23;46359;-87
2022/05/02 10:58:47;;;;;;;;;23.00;20.33;;;;;31.45;58.21;101463.47;6146454;23;45824;-87
2022/05/02 11:01:26;;;;;;;;;24.67;21.67;;;;;31.98;58.43;101460.88;6148681;23;45383;-88
2022/05/02 11:04:00;;;;;;;;;27.50;25.25;;;;;31.58;56.37;101456.78;6174721;23;45325;-88
2022/05/02 11:06:44;;;;;;;;;25.00;21.67;;;;;31.71;57.78;101462.72;6174499;23;46589;-87
2022/05/02 11:09:17;;;;;;;;;27.75;24.50;;;;;32.73;57.33;101448.41;6173611;23;45353;-88
2022/05/02 11:11:50;;;;;;;;;31.75;24.75;;;;;33.76;57.07;101452.50;6175679;23;45591;-88
2022/05/02 11:14:36;;;;;;;;;24.33;22.67;;;;;33.49;54.44;101450.00;6148397;23;45439;-88
2022/05/02 11:17:02;;;;;;;;;19.33;19.33;;;;;32.98;55.02;101442.91;6175449;23;47981;-86
2022/05/02 11:22:32;;;;;;;;;22.33;20.67;;;;;33.06;55.43;101439.88;6175846;23;45430;-88
2022/05/02 11:25:25;;;;;;;;;16.00;14.00;;;;;33.92;55.12;101445.53;6173129;23;45375;-93
2022/05/02 11:28:05;;;;;;;;;23.25;20.25;;;;;35.15;55.15;101438.28;6172261;23;47175;-87
2022/05/02 11:30:41;;;;;;;;;18.33;17.67;;;;;35.06;52.97;101447.78;6198959;22;45695;-86
2022/05/02 11:33:41;;;;;;;;;19.00;18.00;;;;;36.06;53.93;101439.28;6149821;23;45416;-88
2022/05/02 11:36:10;;;;;;;;;21.67;20.67;;;;;37.36;53.03;101435.00;6116467;23;45527;-87
2022/05/02 11:38:50;;;;;;;;;23.00;19.33;;;;;36.79;51.30;101445.47;6140484;23;46609;-88
2022/05/02 11:41:18;;;;;;;;;23.00;20.33;;;;;35.20;50.25;101442.53;6140962;23;45521;-88
2022/05/02 11:43:46;;;;;;;;;19.67;19.33;;;;;34.58;50.90;101438.16;6117399;23;45733;-87
2022/05/02 11:46:23;;;;;;;;;21.33;20.33;;;;;35.82;52.08;101437.75;6143226;23;45646;-87
2022/05/02 11:48:53;;;;;;;;;17.00;17.00;;;;;36.38;51.13;101431.22;6143242;23;47346;-87
2022/05/02 11:51:48;;;;;;;;;21.67;18.33;;;;;35.17;49.79;101436.38;6170217;23;46212;-88
2022/05/02 11:54:37;;;;;;;;;18.33;17.67;;;;;33.59;49.80;101444.16;6141780;23;45315;-88
2022/05/02 11:57:26;;;;;;;;;21.67;20.33;;;;;32.29;49.88;101442.66;6151296;23;45284;-88
2022/05/02 12:00:00;;;;;;;;;20.00;19.33;;;;;32.52;52.10;101435.50;6186220;23;46222;-86
2022/05/02 12:02:41;;;;;;;;;20.33;20.00;;;;;32.97;51.07;101432.06;6157692;23;44734;-87
2022/05/02 12:05:18;;;;;;;;;15.00;15.00;;;;;34.66;51.45;101437.81;6173627;23;45697;-87
2022/05/02 12:07:50;;;;;;;;;17.00;17.00;;;;;36.52;51.74;101426.91;6151139;23;44829;-87
2022/05/02 12:10:17;;;;;;;;;16.67;16.00;;;;;36.99;49.75;101433.44;6158575;22;46387;-86
2022/05/02 12:12:51;;;;;;;;;19.00;18.00;;;;;36.51;48.61;101428.75;6160445;23;45350;-86
2022/05/02 12:15:18;;;;;;;;;19.00;18.33;;;;;35.42;48.44;101427.00;6130309;23;45294;-88
2022/05/02 12:17:59;;;;;;;;;16.67;15.33;;;;;36.32;49.94;101416.03;6183531;23;44832;-88
2022/05/02 12:20:32;;;;;;;;;18.67;15.67;;;;;38.27;50.15;101404.13;6153583;23;45393;-87
2022/05/02 12:23:03;;;;;;;;;19.00;15.67;;;;;38.10;47.40;101417.91;6153213;23;45800;-87
2022/05/02 12:25:31;;;;;;;;;19.00;16.00;;;;;36.71;46.57;101426.75;6156796;22;45245;-88
2022/05/02 12:27:57;;;;;;;;;16.00;16.00;;;;;35.25;47.01;101423.25;6156613;23;45385;-87
2022/05/02 12:30:25;;;;;;;;;18.00;15.33;;;;;34.46;47.68;101417.78;6129833;23;47383;-88
2022/05/02 12:32:51;;;;;;;;;16.33;14.00;;;;;34.41;48.45;101417.13;6158730;23;45303;-88
2022/05/02 12:35:21;;;;;;;;;21.67;16.67;;;;;33.68;47.86;101428.31;6181905;23;45210;-87
2022/05/02 12:37:50;;;;;;;;;17.33;16.00;;;;;32.89;48.43;101418.78;6184159;23;45413;-88
2022/05/02 12:40:27;;;;;;;;;16.67;16.67;;;;;33.39;49.75;101419.56;6187873;23;46477;-87
2022/05/02 12:42:56;;;;;;;;;15.00;15.00;;;;;35.50;49.99;101408.41;6169901;23;44602;-88
2022/05/02 12:45:23;;;;;;;;;17.00;14.67;;;;;37.65;49.54;101415.13;6196475;22;44686;-85
2022/05/02 12:47:55;;;;;;;;;15.67;13.00;;;;;38.71;47.39;101412.38;6209970;22;44914;-85
2022/05/02 12:50:25;;;;;;;;;17.00;16.00;;;;;39.23;46.75;101405.31;6198646;22;45257;-86
2022/05/02 12:53:00;;;;;;;;;15.33;13.00;;;;;40.42;46.33;101411.94;6195498;22;44811;-85
2022/05/02 12:55:38;;;;;;;;;17.00;17.00;;;;;40.13;44.82;101412.16;6191884;23;45228;-87
2022/05/02 13:01:01;;;;;;;;;16.33;14.33;;;;;37.53;44.63;101408.50;6191385;23;44866;-86
2022/05/02 13:03:28;;;;;;;;;19.67;17.67;;;;;36.20;44.22;101413.97;6184105;22;45175;-87
2022/05/02 13:06:08;;;;;;;;;18.33;16.67;;;;;35.02;44.90;101413.47;6192885;23;45366;-87
2022/05/02 13:08:41;;;;;;;;;18.33;17.33;;;;;35.62;45.97;101408.72;6188394;22;45438;-88
2022/05/02 13:11:13;;;;;;;;;17.67;17.00;;;;;37.86;47.17;101406.59;6190214;22;45321;-87
2022/05/02 13:13:52;;;;;;;;;15.00;13.00;;;;;40.35;47.04;101394.16;6187522;23;45344;-87
2022/05/02 13:16:32;;;;;;;;;19.33;17.00;;;;;42.88;46.18;101396.03;6191217;23;45141;-88
2022/05/02 13:19:00;;;;;;;;;18.00;18.00;;;;;42.71;42.78;101402.00;6189018;22;45388;-87
2022/05/02 13:21:27;;;;;;;;;25.00;21.00;;;;;41.00;41.99;101397.63;6184664;22;45344;-87
2022/05/02 13:23:57;;;;;;;;;20.33;18.67;;;;;39.07;41.67;101399.97;6176225;22;45422;-88
2022/05/02 13:26:40;;;;;;;;;15.33;13.67;;;;;37.32;42.27;101395.09;6177435;23;45821;-87
2022/05/02 13:29:28;;;;;;;;;15.67;15.67;;;;;36.68;44.00;101380.44;6176770;23;45299;-87
2022/05/02 13:32:02;;;;;;;;;15.67;14.67;;;;;38.42;44.75;101384.00;6177115;23;47937;-87
2022/05/02 13:34:55;;;;;;;;;15.67;15.00;;;;;40.38;44.23;101381.06;6177896;22;45236;-87
2022/05/02 13:37:33;;;;;;;;;16.33;15.00;;;;;41.84;43.77;101370.25;6177825;23;45223;-87
2022/05/02 13:40:01;;;;;;;;;13.00;12.00;;;;;41.08;41.85;101374.19;6181528;23;45488;-88
2022/05/02 13:42:53;;;;;;;;;16.00;15.00;;;;;39.41;41.85;101376.72;6186006;23;45297;-88
2022/05/02 13:45:32;;;;;;;;;15.00;14.67;;;;;37.17;41.89;101367.66;6181742;23;45658;-88
2022/05/02 13:48:35;;;;;;;;;15.00;14.67;;;;;35.21;42.04;101373.41;6181157;23;45301;-87
2022/05/02 13:51:08;;;;;;;;;16.00;16.00;;;;;33.48;43.03;101371.19;6181339;22;45317;-87
2022/05/02 13:54:00;;;;;;;;;19.33;15.33;;;;;31.95;44.08;101371.44;6178603;23;47160;-86
2022/05/02 13:56:53;;;;;;;;;17.33;16.67;;;;;30.60;45.02;101366.66;6181891;22;45262;-87
2022/05/02 13:59:34;;;;;;;;;20.00;16.00;;;;;29.50;45.92;101372.22;6177928;23;45287;-87
2022/05/02 14:02:16;;;;;;;;;17.33;15.67;;;;;28.55;46.76;101374.28;6173323;22;45759;-87
2022/05/02 14:04:46;;;;;;;;;10.67;10.67;;;;;27.81;47.71;101371.19;6171445;22;45193;-87
2022/05/02 14:07:13;;;;;;;;;17.67;14.67;;;;;27.18;48.21;101373.03;6169923;23;45720;-87
2022/05/02 14:09:50;;;;;;;;;18.00;15.00;;;;;26.67;49.10;101375.44;6169989;22;45570;-87
2022/05/02 14:12:18;;;;;;;;;15.67;15.33;;;;;26.28;49.65;101366.91;6172178;22;45368;-87
2022/05/02 14:14:54;;;;;;;;;14.33;12.67;;;;;25.96;50.03;101363.63;6171602;23;46358;-86
2022/05/02 14:17:36;;;;;;;;;13.67;13.67;;;;;25.71;51.21;101347.69;6170152;23;45355;-88
2022/05/02 14:20:32;;;;;;;;;14.00;13.33;;;;;25.49;51.50;101350.53;6171925;22;45349;-86
2022/05/02 14:23:10;;;;;;;;;15.67;14.67;;;;;25.32;51.80;101349.78;6170682;22;45347;-86
2022/05/02 14:25:43;;;;;;;;;17.33;14.67;;;;;25.33;52.84;101350.69;6171459;22;46159;-88
2022/05/02 14:28:09;;;;;;;;;14.33;13.67;;;;;25.35;52.42;101354.25;6170450;23;45325;-86
2022/05/02 14:30:45;;;;;;;;;15.33;15.33;;;;;25.19;52.58;101354.34;6169103;23;45399;-89
2022/05/02 14:33:13;;;;;;;;;15.67;14.00;;;;;24.92;52.88;101363.44;6171678;22;45736;-89
2022/05/02 14:35:41;;;;;;;;;14.67;13.67;;;;;24.58;53.23;101353.72;6172010;23;46234;-89
2022/05/02 14:38:16;;;;;;;;;17.33;16.00;;;;;24.26;54.05;101343.09;6169281;23;45656;-89
2022/05/02 14:40:46;;;;;;;;;14.67;13.33;;;;;24.00;54.08;101349.34;6173530;22;45371;-89
2022/05/02 14:43:14;;;;;;;;;18.67;15.33;;;;;23.77;54.30;101340.47;6164742;23;45423;-90
2022/05/02 14:45:48;;;;;;;;;15.67;14.33;;;;;23.65;54.38;101348.50;6172322;23;46048;-95
2022/05/02 14:48:14;;;;;;;;;17.33;15.67;;;;;23.53;54.71;101339.56;6173860;23;45288;-94
2022/05/02 14:59:34;;;;;;;;;17.00;14.00;;;;;23.41;56.20;101328.81;6158281;22;45549;-95
2022/05/02 15:39:40;;;;;;;;;14.33;14.33;;;;;24.16;56.66;101307.31;6144847;22;45855;-95
2022/05/02 15:46:17;;;;;;;;;16.00;16.00;;;;;24.07;57.31;101288.59;6302304;22;45455;-95
2022/05/02 15:56:32;;;;;;;;;17.00;16.33;;;;;23.96;57.26;101293.97;6180202;23;45225;-95
2022/05/02 16:00:23;;;;;;;;;17.00;13.33;;;;;24.00;57.33;101298.41;6000559;23;45373;-96
2022/05/02 16:03:03;;;;;;;;;13.00;13.00;;;;;23.99;57.33;101300.19;5887406;24;45809;-94
2022/05/02 16:06:12;;;;;;;;;15.33;14.67;;;;;23.96;56.86;101302.03;5890057;24;47251;-95
2022/05/02 16:29:40;;;;;;;;;20.00;18.75;;;;;22.60;58.13;101292.88;6194167;23;45426;-95
2022/05/02 16:32:45;;;;;;;;;22.75;19.00;;;;;22.51;58.24;101295.53;6157821;23;47463;-96
2022/05/02 16:42:11;;;;;;;;;;;;;;;;;;;;;
2022/05/02 16:44:37;;;;;;;;;19.00;18.00;;;;;22.23;60.12;101298.09;6144762;23;73996;-91
2022/05/02 16:47:37;;;;;;;;;23.00;21.00;;;;;22.16;59.83;101294.50;6118486;23;45611;-94
2022/05/02 17:06:46;;;;;;;;;20.00;17.00;;;;;21.50;61.47;101285.97;6229573;22;45614;-93
2022/05/02 17:11:46;;;;;;;;;20.67;19.00;;;;;21.37;62.12;101287.66;6159361;22;45715;-87
2022/05/02 17:14:14;;;;;;;;;18.50;16.75;;;;;21.29;61.82;101282.22;6169588;23;45787;-88
2022/05/02 17:16:47;;;;;;;;;17.25;16.00;;;;;21.28;61.93;101296.47;6169185;23;45405;-88
2022/05/02 17:19:38;;;;;;;;;21.25;20.75;;;;;21.24;62.32;101291.97;6171103;22;45386;-88
2022/05/02 17:22:05;;;;;;;;;19.00;16.67;;;;;21.17;62.21;101297.28;6170077;23;45363;-88
2022/05/02 17:24:47;;;;;;;;;21.25;19.75;;;;;21.16;62.60;101291.91;6169913;23;45287;-88
2022/05/02 17:27:18;;;;;;;;;21.75;21.25;;;;;21.11;62.53;101283.84;6221625;22;45462;-88
2022/05/02 17:29:49;;;;;;;;;20.00;18.00;;;;;21.06;62.64;101286.47;6169207;23;46909;-93
2022/05/02 17:32:16;;;;;;;;;18.67;17.33;;;;;21.00;62.72;101283.72;6169903;23;45381;-90
2022/05/02 17:34:44;;;;;;;;;21.25;19.00;;;;;20.92;62.88;101282.75;6172247;22;45440;-90
2022/05/02 17:37:18;;;;;;;;;24.50;21.25;;;;;20.85;62.88;101292.44;6171744;23;45892;-91
2022/05/02 17:39:48;;;;;;;;;25.00;20.00;;;;;20.77;63.40;101284.38;6170199;23;47141;-89
2022/05/02 17:42:20;;;;;;;;;22.67;21.67;;;;;20.64;63.44;101275.34;6173988;22;45524;-87
2022/05/02 17:44:51;;;;;;;;;19.00;18.33;;;;;20.59;63.38;101280.59;6178764;23;45262;-89
2022/05/02 17:47:16;;;;;;;;;20.67;18.67;;;;;20.52;63.46;101281.41;6178511;23;45482;-87
2022/05/02 17:49:56;;;;;;;;;19.00;16.67;;;;;20.50;63.60;101289.38;6175823;23;46707;-89
2022/05/02 17:52:26;;;;;;;;;16.00;15.00;;;;;20.41;63.78;101276.81;6181052;22;45347;-92
2022/05/02 17:54:53;;;;;;;;;23.25;20.75;;;;;20.36;63.75;101291.00;6180709;22;45193;-91
2022/05/02 17:57:25;;;;;;;;;19.75;17.75;;;;;20.25;63.68;101278.41;6178427;23;45549;-89
2022/05/02 18:00:11;;;;;;;;;19.33;19.33;;;;;20.22;63.99;101291.69;6176568;23;47758;-85
2022/05/02 18:02:48;;;;;;;;;14.67;13.67;;;;;20.15;63.65;101295.16;6172223;22;45496;-85
2022/05/02 18:05:22;;;;;;;;;19.50;18.25;;;;;20.08;63.80;101295.00;6169394;23;45301;-85
2022/05/02 18:07:47;;;;;;;;;15.00;13.25;;;;;20.05;64.12;101310.94;6168617;23;45502;-85
2022/05/02 18:10:21;;;;;;;;;17.67;17.67;;;;;19.99;64.01;101303.78;6168543;22;46843;-85
2022/05/02 18:13:02;;;;;;;;;20.00;18.50;;;;;19.94;63.82;101299.25;6168251;22;45592;-84
2022/05/02 18:15:33;;;;;;;;;22.00;20.00;;;;;19.87;64.36;101306.22;6179300;22;45445;-85
2022/05/02 18:18:07;;;;;;;;;23.67;18.33;;;;;19.80;64.68;101307.00;6194148;23;45463;-86
2022/05/02 18:20:37;;;;;;;;;16.00;16.00;;;;;19.72;64.56;101299.81;6188385;23;46061;-86
2022/05/02 18:23:05;;;;;;;;;16.67;16.00;;;;;19.65;64.95;101317.47;6186624;22;45332;-86
2022/05/02 18:25:39;;;;;;;;;23.00;17.00;;;;;19.55;64.95;101299.53;6187800;22;45154;-86
2022/05/02 18:28:17;;;;;;;;;19.67;17.00;;;;;19.51;64.92;101309.22;6186449;23;45302;-87
2022/05/02 18:30:45;;;;;;;;;25.75;18.50;;;;;19.43;65.40;101311.75;6195015;23;46141;-87
2022/05/02 18:33:19;;;;;;;;;18.00;17.00;;;;;19.35;65.83;101307.19;6177935;23;45449;-88
2022/05/02 18:35:50;;;;;;;;;20.25;18.75;;;;;19.28;65.69;101303.50;6169407;23;45325;-87
2022/05/02 18:38:19;;;;;;;;;18.00;16.33;;;;;19.23;65.64;101300.75;6195713;22;45887;-89
2022/05/02 18:40:55;;;;;;;;;18.33;13.00;;;;;19.15;65.81;101305.91;6169642;23;47501;-88
2022/05/02 18:43:34;;;;;;;;;21.00;17.67;;;;;19.12;65.74;101307.63;6170766;23;45371;-86
2022/05/02 18:54:34;;;;;;;;;18.00;16.00;;;;;18.85;66.59;101307.09;6169645;23;45706;-86
2022/05/02 18:57:11;;;;;;;;;16.33;16.00;;;;;18.80;66.65;101304.38;6171096;23;45297;-86
2022/05/02 18:59:39;;;;;;;;;17.50;17.00;;;;;18.75;67.14;101311.34;6170765;23;45309;-86
2022/05/02 19:02:06;;;;;;;;;17.33;14.00;;;;;18.68;66.87;101312.09;6171774;23;47197;-86
2022/05/02 19:04:43;;;;;;;;;13.67;12.33;;;;;18.62;66.99;101313.75;6172197;22;45804;-85
2022/05/02 19:07:14;;;;;;;;;17.67;17.33;;;;;18.59;67.50;101321.66;6174824;22;45478;-86
2022/05/02 19:09:40;;;;;;;;;16.00;16.00;;;;;18.53;67.36;101311.78;6173875;22;45264;-85
2022/05/02 19:12:08;;;;;;;;;16.67;14.00;;;;;18.48;67.61;101318.75;6175424;22;46915;-85
2022/05/02 19:14:34;;;;;;;;;13.75;10.50;;;;;18.40;67.41;101317.72;6202316;22;45296;-84
2022/05/02 19:17:03;;;;;;;;;14.67;13.00;;;;;18.37;67.81;101320.31;6176282;22;45385;-84
2022/05/02 19:19:28;;;;;;;;;16.00;16.00;;;;;18.30;68.20;101319.25;6175231;22;45411;-85
2022/05/02 19:22:21;;;;;;;;;19.50;14.25;;;;;18.26;68.61;101320.97;6175082;22;48445;-84
2022/05/02 19:24:58;;;;;;;;;17.75;16.00;;;;;18.20;68.64;101323.47;6202497;22;45365;-83
2022/05/02 19:27:25;;;;;;;;;19.75;18.75;;;;;18.17;68.50;101323.34;6175973;22;45385;-85
2022/05/02 19:30:07;;;;;;;;;15.67;14.33;;;;;18.09;68.61;101324.09;6203206;22;45383;-85
2022/05/02 19:32:45;;;;;;;;;17.00;16.67;;;;;18.07;68.96;101324.91;6203447;22;45645;-85
2022/05/02 19:40:59;;;;;;;;;16.50;15.75;;;;;17.92;69.11;101338.72;6203561;22;45297;-84
2022/05/02 19:43:31;;;;;;;;;20.25;17.00;;;;;17.89;69.75;101334.22;6175547;22;46277;-85
2022/05/02 19:46:07;;;;;;;;;19.25;17.25;;;;;17.85;69.75;101346.56;6202275;22;45370;-85
2022/05/02 19:48:34;;;;;;;;;19.75;18.50;;;;;17.75;70.13;101332.16;6177335;22;45302;-85
2022/05/02 19:50:59;;;;;;;;;21.25;19.75;;;;;17.73;70.17;101347.13;6202611;22;45734;-84
2022/05/02 19:53:26;;;;;;;;;22.25;21.00;;;;;17.69;70.46;101341.72;6203932;22;45469;-85
2022/05/02 19:55:51;;;;;;;;;24.50;21.50;;;;;17.61;70.51;101350.38;6204117;22;45362;-86
2022/05/02 19:58:17;;;;;;;;;24.00;20.00;;;;;17.60;70.71;101350.34;6204248;22;45395;-88
2022/05/02 20:03:41;;;;;;;;;29.00;22.00;;;;;17.51;71.72;101346.59;6215294;22;45323;-96
2022/05/02 20:06:39;;;;;;;;;29.75;25.25;;;;;17.47;71.80;101351.78;6193685;22;45215;-96
2022/05/02 20:11:42;;;;;;;;;22.75;21.50;;;;;17.31;73.19;101331.06;6164670;22;45789;-96
2022/05/02 20:16:43;;;;;;;;;27.00;23.50;;;;;17.21;72.76;101329.00;6153979;22;45066;-95
